sensor_id;sensor_type;location;lat;lon;timestamp;pressure;altitude;pressure_sealevel;temperature;humidity
68489;BME280;55481;48.764;8.936;2023-06-04T00:01:09;97020;;;13.9;49.5
68489;BME280;55481;48.764;8.936;2023-06-04T00:03:39;97020;;;13.9;49.5
68489;BME280;55481;48.764;8.936;2023-06-04T00:08:47;97020;;;14;49
68489;BME280;55481;48.764;8.936;2023-06-04T00:11:18;97020;;;13.9;49
68489;BME280;55481;48.764;8.936;2023-06-04T00:16:12;97020;;;13.8;49.5
68489;BME280;55481;48.764;8.936;2023-06-04T00:26:15;97010;;;13.8;49.5
68489;BME280;55481;48.764;8.936;2023-06-04T00:28:46;97020;;;13.7;49.5
68489;BME280;55481;48.764;8.936;2023-06-04T00:31:17;97020;;;13.6;50
68489;BME280;55481;48.764;8.936;2023-06-04T00:33:48;97020;;;13.4;50.5
68489;BME280;55481;48.764;8.936;2023-06-04T00:36:25;97020;;;13.1;50.5
68489;BME280;55481;48.764;8.936;2023-06-04T00:38:56;97020;;;13.1;51
68489;BME280;55481;48.764;8.936;2023-06-04T00:41:27;97030;;;13;51
68489;BME280;55481;48.764;8.936;2023-06-04T00:43:50;97030;;;13;51
68489;BME280;55481;48.764;8.936;2023-06-04T00:46:23;97040;;;13.1;50.5
68489;BME280;55481;48.764;8.936;2023-06-04T00:53:55;97040;;;13.2;50.5
68489;BME280;55481;48.764;8.936;2023-06-04T00:56:25;97040;;;13;50.5
68489;BME280;55481;48.764;8.936;2023-06-04T00:58:56;97040;;;13;51
68489;BME280;55481;48.764;8.936;2023-06-04T01:04:12;97040;;;12.6;51.5
68489;BME280;55481;48.764;8.936;2023-06-04T01:06:48;97040;;;12.7;51
68489;BME280;55481;48.764;8.936;2023-06-04T01:09:16;97040;;;12.8;51
68489;BME280;55481;48.764;8.936;2023-06-04T01:11:53;97040;;;12.7;51
68489;BME280;55481;48.764;8.936;2023-06-04T01:14:10;97040;;;12.6;51.5
68489;BME280;55481;48.764;8.936;2023-06-04T01:16:43;97040;;;12.5;51.5
68489;BME280;55481;48.764;8.936;2023-06-04T01:19:22;97050;;;12.6;51.5
68489;BME280;55481;48.764;8.936;2023-06-04T01:24:05;97050;;;12.5;51.5
68489;BME280;55481;48.764;8.936;2023-06-04T01:26:36;97050;;;12.5;51.5
68489;BME280;55481;48.764;8.936;2023-06-04T01:29:06;97050;;;12.5;51.5
68489;BME280;55481;48.764;8.936;2023-06-04T01:36:57;97040;;;12.4;51.5
68489;BME280;55481;48.764;8.936;2023-06-04T01:39:14;97040;;;12.4;51.5
68489;BME280;55481;48.764;8.936;2023-06-04T01:44:09;97040;;;12.3;52
68489;BME280;55481;48.764;8.936;2023-06-04T01:46:39;97040;;;12.3;52
68489;BME280;55481;48.764;8.936;2023-06-04T01:49:10;97040;;;12.2;52
68489;BME280;55481;48.764;8.936;2023-06-04T01:51:55;97040;;;12.3;52
68489;BME280;55481;48.764;8.936;2023-06-04T01:54:12;97030;;;12.2;52
68489;BME280;55481;48.764;8.936;2023-06-04T01:56:50;97040;;;12.3;52
68489;BME280;55481;48.764;8.936;2023-06-04T01:59:21;97040;;;12.2;52
68489;BME280;55481;48.764;8.936;2023-06-04T02:06:53;97040;;;12.1;52.5
68489;BME280;55481;48.764;8.936;2023-06-04T02:09:23;97040;;;12.1;52
68489;BME280;55481;48.764;8.936;2023-06-04T02:14:17;97050;;;11.9;52.5
68489;BME280;55481;48.764;8.936;2023-06-04T02:16:48;97040;;;11.9;52.5
68489;BME280;55481;48.764;8.936;2023-06-04T02:19:19;97050;;;11.9;53
68489;BME280;55481;48.764;8.936;2023-06-04T02:21:50;97040;;;12;52.5
68489;BME280;55481;48.764;8.936;2023-06-04T02:24:27;97040;;;11.7;53
68489;BME280;55481;48.764;8.936;2023-06-04T02:29:16;97050;;;11.5;53.5
68489;BME280;55481;48.764;8.936;2023-06-04T02:31:46;97060;;;11.6;53
68489;BME280;55481;48.764;8.936;2023-06-04T02:34:17;97060;;;11.7;53
68489;BME280;55481;48.764;8.936;2023-06-04T02:36:48;97060;;;11.7;53
68489;BME280;55481;48.764;8.936;2023-06-04T02:39:19;97060;;;11.6;53
68489;BME280;55481;48.764;8.936;2023-06-04T02:41:49;97050;;;11.6;53
68489;BME280;55481;48.764;8.936;2023-06-04T02:44:20;97050;;;11.5;53.5
68489;BME280;55481;48.764;8.936;2023-06-04T02:49:34;97050;;;11.3;54
68489;BME280;55481;48.764;8.936;2023-06-04T02:54:30;97050;;;11.4;53.5
68489;BME280;55481;48.764;8.936;2023-06-04T02:57:00;97050;;;11.3;54
68489;BME280;55481;48.764;8.936;2023-06-04T02:59:30;97050;;;11.3;53.5
68489;BME280;55481;48.764;8.936;2023-06-04T03:02:02;97050;;;11.4;53.5
68489;BME280;55481;48.764;8.936;2023-06-04T03:04:32;97050;;;11.4;53.5
68489;BME280;55481;48.764;8.936;2023-06-04T03:07:04;97050;;;11.5;53.5
68489;BME280;55481;48.764;8.936;2023-06-04T03:19:31;97060;;;11.4;53.5
68489;BME280;55481;48.764;8.936;2023-06-04T03:22:04;97060;;;11.4;53.5
68489;BME280;55481;48.764;8.936;2023-06-04T03:24:33;97060;;;11.5;53.5
68489;BME280;55481;48.764;8.936;2023-06-04T03:27:03;97060;;;11.4;53.5
68489;BME280;55481;48.764;8.936;2023-06-04T03:29:34;97070;;;11.5;53.5
68489;BME280;55481;48.764;8.936;2023-06-04T03:34:42;97070;;;11.2;54
68489;BME280;55481;48.764;8.936;2023-06-04T03:37:12;97080;;;11.3;54
68489;BME280;55481;48.764;8.936;2023-06-04T03:39:44;97080;;;11;54.5
68489;BME280;55481;48.764;8.936;2023-06-04T03:50:06;97080;;;10.9;54.5
68489;BME280;55481;48.764;8.936;2023-06-04T03:52:23;97070;;;10.9;55
68489;BME280;55481;48.764;8.936;2023-06-04T03:54:53;97080;;;11;54.5
68489;BME280;55481;48.764;8.936;2023-06-04T03:59:47;97080;;;11.3;54
68489;BME280;55481;48.764;8.936;2023-06-04T04:02:17;97080;;;11.3;54
68489;BME280;55481;48.764;8.936;2023-06-04T04:04:48;97080;;;11.3;54
68489;BME280;55481;48.764;8.936;2023-06-04T04:07:20;97080;;;11.4;54
68489;BME280;55481;48.764;8.936;2023-06-04T04:09:57;97080;;;11.6;53.5
68489;BME280;55481;48.764;8.936;2023-06-04T04:12:28;97080;;;11.6;53.5
68489;BME280;55481;48.764;8.936;2023-06-04T04:14:53;97080;;;11.7;53.5
68489;BME280;55481;48.764;8.936;2023-06-04T04:17:25;97080;;;11.5;54
68489;BME280;55481;48.764;8.936;2023-06-04T04:19:55;97080;;;11.4;54
68489;BME280;55481;48.764;8.936;2023-06-04T04:22:19;97090;;;11.4;54
68489;BME280;55481;48.764;8.936;2023-06-04T04:24:50;97090;;;11;55
68489;BME280;55481;48.764;8.936;2023-06-04T04:27:20;97100;;;10.9;55.5
68489;BME280;55481;48.764;8.936;2023-06-04T04:29:51;97100;;;10.9;55.5
68489;BME280;55481;48.764;8.936;2023-06-04T04:32:22;97100;;;11;55
68489;BME280;55481;48.764;8.936;2023-06-04T04:39:55;97110;;;11.5;54
68489;BME280;55481;48.764;8.936;2023-06-04T04:45:22;97110;;;11.4;54
68489;BME280;55481;48.764;8.936;2023-06-04T04:47:39;97120;;;11.5;54
68489;BME280;55481;48.764;8.936;2023-06-04T04:50:09;97110;;;11.4;54
68489;BME280;55481;48.764;8.936;2023-06-04T04:55:03;97110;;;11.8;53.5
68489;BME280;55481;48.764;8.936;2023-06-04T04:57:34;97100;;;11.8;53.5
68489;BME280;55481;48.764;8.936;2023-06-04T05:00:11;97100;;;12.2;53
68489;BME280;55481;48.764;8.936;2023-06-04T05:02:36;97100;;;12.3;52.5
68489;BME280;55481;48.764;8.936;2023-06-04T05:05:17;97110;;;12.2;53
68489;BME280;55481;48.764;8.936;2023-06-04T05:07:44;97110;;;12.2;53.5
68489;BME280;55481;48.764;8.936;2023-06-04T05:10:09;97110;;;12.2;53.5
68489;BME280;55481;48.764;8.936;2023-06-04T05:12:39;97110;;;12.3;53
68489;BME280;55481;48.764;8.936;2023-06-04T05:15:11;97110;;;12.5;53
68489;BME280;55481;48.764;8.936;2023-06-04T05:17:42;97110;;;12.9;52
68489;BME280;55481;48.764;8.936;2023-06-04T05:20:06;97120;;;13;52
68489;BME280;55481;48.764;8.936;2023-06-04T05:22:37;97120;;;13.1;52
68489;BME280;55481;48.764;8.936;2023-06-04T05:25:07;97130;;;13.2;52
68489;BME280;55481;48.764;8.936;2023-06-04T05:27:39;97130;;;13.5;51.5
68489;BME280;55481;48.764;8.936;2023-06-04T05:35:11;97130;;;13.9;51
68489;BME280;55481;48.764;8.936;2023-06-04T05:38:02;97120;;;14.1;51
68489;BME280;55481;48.764;8.936;2023-06-04T05:45:25;97120;;;14.2;51
68489;BME280;55481;48.764;8.936;2023-06-04T05:47:55;97120;;;14.3;51
68489;BME280;55481;48.764;8.936;2023-06-04T05:50:19;97130;;;14.4;51
68489;BME280;55481;48.764;8.936;2023-06-04T05:52:50;97120;;;14.5;51
68489;BME280;55481;48.764;8.936;2023-06-04T05:55:21;97120;;;14.4;51
68489;BME280;55481;48.764;8.936;2023-06-04T05:57:58;97120;;;14.3;51
68489;BME280;55481;48.764;8.936;2023-06-04T06:00:29;97130;;;14.3;51
68489;BME280;55481;48.764;8.936;2023-06-04T06:05:25;97140;;;14.6;51
68489;BME280;55481;48.764;8.936;2023-06-04T06:07:56;97140;;;14.7;50.5
68489;BME280;55481;48.764;8.936;2023-06-04T06:10:27;97130;;;14.7;50.5
68489;BME280;55481;48.764;8.936;2023-06-04T06:12:58;97130;;;14.8;50.5
68489;BME280;55481;48.764;8.936;2023-06-04T06:15:29;97130;;;14.8;50.5
68489;BME280;55481;48.764;8.936;2023-06-04T06:20:30;97140;;;15.2;50
68489;BME280;55481;48.764;8.936;2023-06-04T06:23:05;97140;;;15.3;50
68489;BME280;55481;48.764;8.936;2023-06-04T06:25:33;97140;;;15.6;49.5
68489;BME280;55481;48.764;8.936;2023-06-04T06:28:10;97140;;;15.5;49.5
68489;BME280;55481;48.764;8.936;2023-06-04T06:33:18;97150;;;15.5;50
68489;BME280;55481;48.764;8.936;2023-06-04T06:35:56;97140;;;15.8;49.5
68489;BME280;55481;48.764;8.936;2023-06-04T06:38:12;97150;;;15.9;49.5
68489;BME280;55481;48.764;8.936;2023-06-04T06:40:36;97150;;;16.2;49
68489;BME280;55481;48.764;8.936;2023-06-04T06:43:07;97150;;;16.4;48.5
68489;BME280;55481;48.764;8.936;2023-06-04T06:45:38;97150;;;16.4;49
68489;BME280;55481;48.764;8.936;2023-06-04T06:48:09;97150;;;16.1;49
68489;BME280;55481;48.764;8.936;2023-06-04T06:50:40;97150;;;16;49.5
68489;BME280;55481;48.764;8.936;2023-06-04T06:53:10;97150;;;16.1;49.5
68489;BME280;55481;48.764;8.936;2023-06-04T06:55:42;97140;;;16.4;49
68489;BME280;55481;48.764;8.936;2023-06-04T06:58:19;97140;;;16.6;48.5
68489;BME280;55481;48.764;8.936;2023-06-04T07:03:15;97150;;;17;48
68489;BME280;55481;48.764;8.936;2023-06-04T07:05:46;97140;;;17;48
68489;BME280;55481;48.764;8.936;2023-06-04T07:08:17;97140;;;17;48.5
68489;BME280;55481;48.764;8.936;2023-06-04T07:10:48;97150;;;17.2;48
68489;BME280;55481;48.764;8.936;2023-06-04T07:13:19;97150;;;17.7;47.5
68489;BME280;55481;48.764;8.936;2023-06-04T07:15:50;97150;;;18;47
68489;BME280;55481;48.764;8.936;2023-06-04T07:18:21;97140;;;18.1;47
68489;BME280;55481;48.764;8.936;2023-06-04T07:20:52;97150;;;18;47.5
68489;BME280;55481;48.764;8.936;2023-06-04T07:23:22;97140;;;18.4;47
68489;BME280;55481;48.764;8.936;2023-06-04T07:26:00;97140;;;18.6;46.5
68489;BME280;55481;48.764;8.936;2023-06-04T07:30:55;97140;;;18.5;47
68489;BME280;55481;48.764;8.936;2023-06-04T07:33:26;97140;;;18.6;47
68489;BME280;55481;48.764;8.936;2023-06-04T07:35:58;97140;;;18.8;47
68489;BME280;55481;48.764;8.936;2023-06-04T07:38:29;97140;;;19;46.5
68489;BME280;55481;48.764;8.936;2023-06-04T07:41:00;97140;;;18.8;47
68489;BME280;55481;48.764;8.936;2023-06-04T07:43:34;97140;;;18.9;47
68489;BME280;55481;48.764;8.936;2023-06-04T07:46:02;97140;;;18.6;47.5
68489;BME280;55481;48.764;8.936;2023-06-04T07:48:32;97140;;;18.7;47.5
68489;BME280;55481;48.764;8.936;2023-06-04T07:51:10;97140;;;18.8;47
68489;BME280;55481;48.764;8.936;2023-06-04T07:53:41;97140;;;19.1;46.5
68489;BME280;55481;48.764;8.936;2023-06-04T07:58:36;97130;;;19.4;46.5
68489;BME280;55481;48.764;8.936;2023-06-04T08:01:08;97120;;;19.6;46
68489;BME280;55481;48.764;8.936;2023-06-04T08:03:38;97130;;;19.7;46
68489;BME280;55481;48.764;8.936;2023-06-04T08:06:09;97120;;;19.9;46
68489;BME280;55481;48.764;8.936;2023-06-04T08:08:43;97120;;;20;46
68489;BME280;55481;48.764;8.936;2023-06-04T08:11:18;97120;;;20.1;45.5
68489;BME280;55481;48.764;8.936;2023-06-04T08:13:42;97120;;;20.2;45.5
68489;BME280;55481;48.764;8.936;2023-06-04T08:16:13;97110;;;20.3;45.5
68489;BME280;55481;48.764;8.936;2023-06-04T08:18:47;97110;;;20.6;45
68489;BME280;55481;48.764;8.936;2023-06-04T08:21:24;97110;;;21;44.5
68489;BME280;55481;48.764;8.936;2023-06-04T08:23:53;97110;;;21.1;44.5
68489;BME280;55481;48.764;8.936;2023-06-04T08:28:48;97120;;;21.7;44
68489;BME280;55481;48.764;8.936;2023-06-04T08:31:19;97110;;;21.5;44.5
68489;BME280;55481;48.764;8.936;2023-06-04T08:33:50;97110;;;21.3;45
68489;BME280;55481;48.764;8.936;2023-06-04T08:36:21;97110;;;21.4;45
68489;BME280;55481;48.764;8.936;2023-06-04T08:38:52;97110;;;21.5;45
68489;BME280;55481;48.764;8.936;2023-06-04T08:41:42;97110;;;21.5;45
68489;BME280;55481;48.764;8.936;2023-06-04T08:43:55;97110;;;21.7;44.5
68489;BME280;55481;48.764;8.936;2023-06-04T08:46:30;97110;;;21.8;44.5
68489;BME280;55481;48.764;8.936;2023-06-04T08:48:57;97120;;;21.9;44.5
68489;BME280;55481;48.764;8.936;2023-06-04T08:56:28;97120;;;22.2;44
68489;BME280;55481;48.764;8.936;2023-06-04T08:59:01;97120;;;22.4;44
68489;BME280;55481;48.764;8.936;2023-06-04T09:01:31;97120;;;22.4;44
68489;BME280;55481;48.764;8.936;2023-06-04T09:04:01;97120;;;22.5;43.5
68489;BME280;55481;48.764;8.936;2023-06-04T09:06:32;97130;;;22.3;44
68489;BME280;55481;48.764;8.936;2023-06-04T09:09:03;97120;;;22.3;44
68489;BME280;55481;48.764;8.936;2023-06-04T09:11:41;97120;;;22.5;44
68489;BME280;55481;48.764;8.936;2023-06-04T09:14:17;97120;;;22.5;44
68489;BME280;55481;48.764;8.936;2023-06-04T09:16:49;97130;;;22.5;44
68489;BME280;55481;48.764;8.936;2023-06-04T09:19:24;97130;;;22.5;44
68489;BME280;55481;48.764;8.936;2023-06-04T09:24:06;97140;;;23;43
68489;BME280;55481;48.764;8.936;2023-06-04T09:26:36;97140;;;23.2;43
68489;BME280;55481;48.764;8.936;2023-06-04T09:29:07;97140;;;22.9;43.5
68489;BME280;55481;48.764;8.936;2023-06-04T09:31:31;97150;;;22.9;43.5
68489;BME280;55481;48.764;8.936;2023-06-04T09:41:35;97140;;;23;43.5
68489;BME280;55481;48.764;8.936;2023-06-04T09:44:05;97140;;;23.3;43
68489;BME280;55481;48.764;8.936;2023-06-04T09:46:37;97140;;;23.4;43
68489;BME280;55481;48.764;8.936;2023-06-04T09:49:06;97140;;;23.4;43
68489;BME280;55481;48.764;8.936;2023-06-04T09:51:46;97140;;;23.6;42.5
68489;BME280;55481;48.764;8.936;2023-06-04T09:54:15;97140;;;23.6;42.5
68489;BME280;55481;48.764;8.936;2023-06-04T09:59:11;97140;;;23.9;42.5
68489;BME280;55481;48.764;8.936;2023-06-04T10:01:40;97130;;;23.9;42.5
68489;BME280;55481;48.764;8.936;2023-06-04T10:11:45;97130;;;23.8;42.5
68489;BME280;55481;48.764;8.936;2023-06-04T10:14:17;97130;;;24.1;42
68489;BME280;55481;48.764;8.936;2023-06-04T10:16:46;97130;;;24;42
68489;BME280;55481;48.764;8.936;2023-06-04T10:19:16;97130;;;24;42.5
68489;BME280;55481;48.764;8.936;2023-06-04T10:22:00;97120;;;24.1;42
68489;BME280;55481;48.764;8.936;2023-06-04T10:24:30;97120;;;24.1;42
68489;BME280;55481;48.764;8.936;2023-06-04T10:26:54;97130;;;24;42
68489;BME280;55481;48.764;8.936;2023-06-04T10:29:32;97130;;;24.3;42
68489;BME280;55481;48.764;8.936;2023-06-04T10:37:05;97120;;;24.6;41.5
68489;BME280;55481;48.764;8.936;2023-06-04T10:39:35;97110;;;24.5;41.5
68489;BME280;55481;48.764;8.936;2023-06-04T10:42:05;97110;;;24.8;41.5
68489;BME280;55481;48.764;8.936;2023-06-04T10:44:30;97110;;;25.1;41
68489;BME280;55481;48.764;8.936;2023-06-04T10:47:00;97110;;;25.2;41
68489;BME280;55481;48.764;8.936;2023-06-04T10:49:32;97120;;;25;41
68489;BME280;55481;48.764;8.936;2023-06-04T10:59:29;97120;;;24.8;41.5
68489;BME280;55481;48.764;8.936;2023-06-04T11:02:04;97110;;;25.2;41
68489;BME280;55481;48.764;8.936;2023-06-04T11:04:30;97110;;;25.4;40.5
68489;BME280;55481;48.764;8.936;2023-06-04T11:07:01;97110;;;25.4;40.5
68489;BME280;55481;48.764;8.936;2023-06-04T11:09:31;97110;;;25.4;41
68489;BME280;55481;48.764;8.936;2023-06-04T11:12:09;97110;;;25.5;40.5
68489;BME280;55481;48.764;8.936;2023-06-04T11:14:54;97110;;;25.6;40.5
68489;BME280;55481;48.764;8.936;2023-06-04T11:17:12;97110;;;25.6;41
68489;BME280;55481;48.764;8.936;2023-06-04T11:19:35;97110;;;26;40.5
68489;BME280;55481;48.764;8.936;2023-06-04T11:27:07;97100;;;26;40.5
68489;BME280;55481;48.764;8.936;2023-06-04T11:29:38;97110;;;26.1;40
68489;BME280;55481;48.764;8.936;2023-06-04T11:32:09;97110;;;26.2;40
68489;BME280;55481;48.764;8.936;2023-06-04T11:34:39;97110;;;26.3;40
68489;BME280;55481;48.764;8.936;2023-06-04T11:37:17;97100;;;26.6;39.5
68489;BME280;55481;48.764;8.936;2023-06-04T11:39:48;97100;;;26.2;40
68489;BME280;55481;48.764;8.936;2023-06-04T11:44:42;97100;;;26.9;39
68489;BME280;55481;48.764;8.936;2023-06-04T11:47:13;97090;;;28.7;36
68489;BME280;55481;48.764;8.936;2023-06-04T11:54:45;97100;;;30.1;34.5
68489;BME280;55481;48.764;8.936;2023-06-04T11:57:16;97100;;;30;34.5
68489;BME280;55481;48.764;8.936;2023-06-04T11:59:47;97100;;;30.1;35
68489;BME280;55481;48.764;8.936;2023-06-04T12:05:17;97100;;;29.2;36.5
68489;BME280;55481;48.764;8.936;2023-06-04T12:08:22;97080;;;30.8;34.5
68489;BME280;55481;48.764;8.936;2023-06-04T12:10:41;97080;;;31;34.5
68489;BME280;55481;48.764;8.936;2023-06-04T12:13:11;97080;;;30.9;35
68489;BME280;55481;48.764;8.936;2023-06-04T12:23:19;97070;;;30.8;35
68489;BME280;55481;48.764;8.936;2023-06-04T12:28:23;97080;;;30.8;35
68489;BME280;55481;48.764;8.936;2023-06-04T12:30:53;97080;;;30.7;35
68489;BME280;55481;48.764;8.936;2023-06-04T12:33:24;97080;;;30.9;35
68489;BME280;55481;48.764;8.936;2023-06-04T12:35:55;97070;;;30.8;35
68489;BME280;55481;48.764;8.936;2023-06-04T12:38:33;97090;;;30.7;35
68489;BME280;55481;48.764;8.936;2023-06-04T12:41:03;97090;;;30.3;35.5
68489;BME280;55481;48.764;8.936;2023-06-04T12:43:33;97090;;;29.7;36
68489;BME280;55481;48.764;8.936;2023-06-04T12:46:03;97090;;;29.8;36
68489;BME280;55481;48.764;8.936;2023-06-04T12:48:40;97080;;;30.8;34.5
68489;BME280;55481;48.764;8.936;2023-06-04T12:51:10;97080;;;30.8;34.5
68489;BME280;55481;48.764;8.936;2023-06-04T12:55:58;97080;;;31.7;33
68489;BME280;55481;48.764;8.936;2023-06-04T12:58:36;97080;;;31.2;34
68489;BME280;55481;48.764;8.936;2023-06-04T13:03:25;97070;;;30.7;34.5
68489;BME280;55481;48.764;8.936;2023-06-04T13:05:54;97070;;;30.3;35.5
68489;BME280;55481;48.764;8.936;2023-06-04T13:08:26;97060;;;30.9;34
68489;BME280;55481;48.764;8.936;2023-06-04T13:10:58;97070;;;29.7;35.5
68489;BME280;55481;48.764;8.936;2023-06-04T13:13:43;97070;;;29.9;35
68489;BME280;55481;48.764;8.936;2023-06-04T13:23:30;97080;;;30.2;34
68489;BME280;55481;48.764;8.936;2023-06-04T13:26:01;97080;;;28.9;35.5
68489;BME280;55481;48.764;8.936;2023-06-04T13:28:38;97080;;;29;35.5
68489;BME280;55481;48.764;8.936;2023-06-04T13:31:05;97080;;;28.9;35
68489;BME280;55481;48.764;8.936;2023-06-04T13:33:40;97080;;;27.7;37
68489;BME280;55481;48.764;8.936;2023-06-04T13:36:11;97080;;;27.9;36.5
68489;BME280;55481;48.764;8.936;2023-06-04T13:38:42;97070;;;30;33.5
68489;BME280;55481;48.764;8.936;2023-06-04T13:41:06;97070;;;30.7;32.5
68489;BME280;55481;48.764;8.936;2023-06-04T13:48:39;97070;;;29.2;34.5
68489;BME280;55481;48.764;8.936;2023-06-04T13:51:09;97070;;;28.3;35.5
68489;BME280;55481;48.764;8.936;2023-06-04T13:53:43;97080;;;28.1;36
68489;BME280;55481;48.764;8.936;2023-06-04T13:56:11;97080;;;28.5;35
68489;BME280;55481;48.764;8.936;2023-06-04T13:58:42;97080;;;29.1;34
68489;BME280;55481;48.764;8.936;2023-06-04T14:01:12;97080;;;29.2;33.5
68489;BME280;55481;48.764;8.936;2023-06-04T14:03:43;97080;;;28.2;35
68489;BME280;55481;48.764;8.936;2023-06-04T14:16:36;97060;;;32.6;30
68489;BME280;55481;48.764;8.936;2023-06-04T14:18:59;97060;;;33.3;29
68489;BME280;55481;48.764;8.936;2023-06-04T14:21:30;97070;;;31.9;31
68489;BME280;55481;48.764;8.936;2023-06-04T14:24:00;97060;;;32.3;30.5
68489;BME280;55481;48.764;8.936;2023-06-04T14:26:37;97060;;;32.6;30
68489;BME280;55481;48.764;8.936;2023-06-04T14:29:00;97050;;;32.4;30
68489;BME280;55481;48.764;8.936;2023-06-04T14:31:30;97060;;;32.5;30
68489;BME280;55481;48.764;8.936;2023-06-04T14:33:54;97060;;;32.4;30.5
68489;BME280;55481;48.764;8.936;2023-06-04T14:36:32;97060;;;31.7;31
68489;BME280;55481;48.764;8.936;2023-06-04T14:44:04;97060;;;31;31
68489;BME280;55481;48.764;8.936;2023-06-04T14:46:35;97050;;;32.1;30
68489;BME280;55481;48.764;8.936;2023-06-04T14:49:05;97050;;;32.8;29
68489;BME280;55481;48.764;8.936;2023-06-04T14:51:35;97050;;;32.3;29.5
68489;BME280;55481;48.764;8.936;2023-06-04T14:54:05;97050;;;32.1;29.5
68489;BME280;55481;48.764;8.936;2023-06-04T14:59:00;97040;;;31.7;30
68489;BME280;55481;48.764;8.936;2023-06-04T15:01:38;97040;;;32.3;29
68489;BME280;55481;48.764;8.936;2023-06-04T15:04:08;97040;;;31.9;29
68489;BME280;55481;48.764;8.936;2023-06-04T15:06:33;97040;;;32.2;29
68489;BME280;55481;48.764;8.936;2023-06-04T15:09:03;97040;;;31.2;30
68489;BME280;55481;48.764;8.936;2023-06-04T15:11:34;97040;;;30.4;30.5
68489;BME280;55481;48.764;8.936;2023-06-04T15:14:05;97050;;;29.8;31
68489;BME280;55481;48.764;8.936;2023-06-04T15:16:30;97050;;;28.5;32.5
68489;BME280;55481;48.764;8.936;2023-06-04T15:19:00;97050;;;27.9;33
68489;BME280;55481;48.764;8.936;2023-06-04T15:21:31;97050;;;27.5;33.5
68489;BME280;55481;48.764;8.936;2023-06-04T15:24:02;97050;;;26.8;34
68489;BME280;55481;48.764;8.936;2023-06-04T15:36:42;97040;;;25.9;34
68489;BME280;55481;48.764;8.936;2023-06-04T15:39:13;97040;;;25.8;34
68489;BME280;55481;48.764;8.936;2023-06-04T15:44:21;97040;;;25.5;34
68489;BME280;55481;48.764;8.936;2023-06-04T15:46:52;97040;;;25.5;33.5
68489;BME280;55481;48.764;8.936;2023-06-04T15:51:45;97040;;;25.1;34
68489;BME280;55481;48.764;8.936;2023-06-04T15:54:16;97040;;;25.1;34
68489;BME280;55481;48.764;8.936;2023-06-04T15:56:47;97040;;;25.1;34
68489;BME280;55481;48.764;8.936;2023-06-04T15:59:25;97030;;;24.9;34
68489;BME280;55481;48.764;8.936;2023-06-04T16:01:50;97030;;;24.7;34
68489;BME280;55481;48.764;8.936;2023-06-04T16:04:20;97030;;;24.5;34
68489;BME280;55481;48.764;8.936;2023-06-04T16:06:51;97030;;;24.5;34
68489;BME280;55481;48.764;8.936;2023-06-04T16:09:22;97030;;;24.6;34
68489;BME280;55481;48.764;8.936;2023-06-04T16:14:16;97020;;;24.6;34
68489;BME280;55481;48.764;8.936;2023-06-04T16:16:47;97020;;;24.6;34
68489;BME280;55481;48.764;8.936;2023-06-04T16:19:18;97020;;;24.6;33.5
68489;BME280;55481;48.764;8.936;2023-06-04T16:26:50;97010;;;24.2;34
68489;BME280;55481;48.764;8.936;2023-06-04T16:29:21;97010;;;24.1;34
68489;BME280;55481;48.764;8.936;2023-06-04T16:34:32;97010;;;24.1;34
68489;BME280;55481;48.764;8.936;2023-06-04T16:36:59;97010;;;24.1;34
68489;BME280;55481;48.764;8.936;2023-06-04T16:39:30;97010;;;24;34
68489;BME280;55481;48.764;8.936;2023-06-04T16:44:25;97000;;;24;34
68489;BME280;55481;48.764;8.936;2023-06-04T16:46:56;97010;;;23.9;34
68489;BME280;55481;48.764;8.936;2023-06-04T16:54:28;97010;;;23.7;34
68489;BME280;55481;48.764;8.936;2023-06-04T16:56:59;97010;;;23.7;34
68489;BME280;55481;48.764;8.936;2023-06-04T17:02:13;97010;;;23.7;34
68489;BME280;55481;48.764;8.936;2023-06-04T17:04:38;97010;;;23.6;34
68489;BME280;55481;48.764;8.936;2023-06-04T17:09:32;97020;;;23.5;34.5
68489;BME280;55481;48.764;8.936;2023-06-04T17:12:03;97020;;;23.4;34
68489;BME280;55481;48.764;8.936;2023-06-04T17:14:35;97020;;;23.3;34.5
68489;BME280;55481;48.764;8.936;2023-06-04T17:17:04;97020;;;23.3;34.5
68489;BME280;55481;48.764;8.936;2023-06-04T17:24:36;97020;;;23.2;34.5
68489;BME280;55481;48.764;8.936;2023-06-04T17:27:07;97020;;;23.2;34.5
68489;BME280;55481;48.764;8.936;2023-06-04T17:32:15;97020;;;23.1;34.5
68489;BME280;55481;48.764;8.936;2023-06-04T17:34:46;97020;;;23;34.5
68489;BME280;55481;48.764;8.936;2023-06-04T17:39:40;97020;;;22.9;34.5
68489;BME280;55481;48.764;8.936;2023-06-04T17:42:11;97020;;;22.8;34.5
68489;BME280;55481;48.764;8.936;2023-06-04T17:52:14;97020;;;22.7;34.5
68489;BME280;55481;48.764;8.936;2023-06-04T17:54:45;97020;;;22.7;34.5
68489;BME280;55481;48.764;8.936;2023-06-04T17:57:16;97020;;;22.6;34.5
68489;BME280;55481;48.764;8.936;2023-06-04T17:59:46;97020;;;22.6;34.5
68489;BME280;55481;48.764;8.936;2023-06-04T18:02:17;97020;;;22.5;34.5
68489;BME280;55481;48.764;8.936;2023-06-04T18:04:58;97030;;;22.4;35
68489;BME280;55481;48.764;8.936;2023-06-04T18:07:29;97030;;;22.4;35
68489;BME280;55481;48.764;8.936;2023-06-04T18:09:50;97030;;;22.3;35
68489;BME280;55481;48.764;8.936;2023-06-04T18:12:38;97030;;;22.3;35
68489;BME280;55481;48.764;8.936;2023-06-04T18:25:01;97040;;;21.8;35
68489;BME280;55481;48.764;8.936;2023-06-04T18:27:32;97050;;;21.7;35.5
68489;BME280;55481;48.764;8.936;2023-06-04T18:30:11;97040;;;21.7;35
68489;BME280;55481;48.764;8.936;2023-06-04T18:35:11;97050;;;21.5;35.5
68489;BME280;55481;48.764;8.936;2023-06-04T18:37:41;97050;;;21.4;35.5
68489;BME280;55481;48.764;8.936;2023-06-04T18:40:04;97050;;;21.4;35.5
68489;BME280;55481;48.764;8.936;2023-06-04T18:42:35;97050;;;21.3;35.5
68489;BME280;55481;48.764;8.936;2023-06-04T18:47:46;97050;;;21.1;35.5
68489;BME280;55481;48.764;8.936;2023-06-04T18:55:30;97050;;;20.8;36
68489;BME280;55481;48.764;8.936;2023-06-04T18:57:47;97050;;;20.7;36
68489;BME280;55481;48.764;8.936;2023-06-04T19:02:41;97040;;;20.6;36
68489;BME280;55481;48.764;8.936;2023-06-04T19:05:18;97040;;;20.5;36
68489;BME280;55481;48.764;8.936;2023-06-04T19:10:14;97050;;;20.4;36
68489;BME280;55481;48.764;8.936;2023-06-04T19:12:44;97050;;;20.3;36
68489;BME280;55481;48.764;8.936;2023-06-04T19:15:16;97050;;;20.2;36
68489;BME280;55481;48.764;8.936;2023-06-04T19:17:47;97060;;;20.1;36.5